KINJ

Hillsboro Municipal Airport

Hillsboro, Texas, USA
METAR KINJ 181555Z AUTO 04005KT 10SM OVC033 16/11 A3038 RMK AO2 T01560113
Observed Flight Rules
Oct-18 @ 15:55 UTC (11 minutes ago) Visual Flight Rules
Wind Visibility Clouds
40° at 5 knots 10 miles
  • Overcast at 3,300' AGL
Temperatures Readings
Current 16°C / 61°F
Dewpoint 11°C / 52°F
Humidity 72%
Altimeter 30.38" Hg
Pressure 1029 hPa
Elevation 209
METAR KINJ 181555Z AUTO 04005KT 10SM OVC033 16/11 A3038 RMK AO2 T01560113
Observed Flight Rules
Oct-18 @ 15:55 UTC
(11 minutes ago)
VFR
Wind Visibility
40° at 5 knots 10 miles
Clouds
  • Overcast at 3,300' AGL
Temperature Dewpoint
16°C / 61°F 11°C / 52°F
Humidity Altimeter Pressure
72% 30.38" Hg 1029 hPa